createdAt,value
2019-04-14T00:00:57.551Z,93.30
2019-04-14T00:03:30.899Z,93.50
2019-04-14T00:06:02.682Z,93.30
2019-04-14T00:08:32.704Z,94.20
2019-04-14T00:11:01.835Z,94.40
2019-04-14T00:13:31.026Z,94.00
2019-04-14T00:16:01.090Z,94.60
2019-04-14T00:18:30.255Z,94.40
2019-04-14T00:21:00.457Z,94.20
2019-04-14T00:23:30.414Z,93.80
2019-04-14T00:26:31.610Z,93.80
2019-04-14T00:29:00.613Z,93.50
2019-04-14T00:31:30.600Z,93.70
2019-04-14T00:34:05.102Z,94.10
2019-04-14T00:36:39.421Z,93.70
2019-04-14T00:39:22.702Z,93.70
2019-04-14T00:41:58.227Z,94.80
2019-04-14T00:44:41.458Z,94.50
2019-04-14T00:47:11.942Z,94.30
2019-04-14T00:49:41.829Z,94.40
2019-04-14T00:52:28.055Z,95.10
2019-04-14T00:54:56.940Z,94.50
2019-04-14T00:57:26.872Z,94.90
2019-04-14T00:59:55.893Z,95.10
2019-04-14T01:02:25.347Z,95.60
2019-04-14T01:04:55.448Z,95.40
2019-04-14T01:07:24.521Z,94.50
2019-04-14T01:09:53.383Z,94.40
2019-04-14T01:12:23.432Z,94.40
2019-04-14T01:14:52.752Z,94.10
2019-04-14T01:17:22.766Z,94.50
2019-04-14T01:19:52.690Z,94.40
2019-04-14T01:22:22.741Z,94.40
2019-04-14T01:24:51.836Z,95.10
2019-04-14T01:27:21.147Z,94.50
2019-04-14T01:29:51.562Z,95.00
2019-04-14T01:32:21.813Z,95.10
2019-04-14T01:34:52.763Z,94.60
2019-04-14T01:37:22.471Z,95.00
2019-04-14T01:39:52.522Z,94.60
2019-04-14T01:42:22.368Z,94.30
2019-04-14T01:44:52.420Z,94.60
2019-04-14T01:47:22.644Z,94.40
2019-04-14T01:49:52.945Z,94.80
2019-04-14T01:52:43.652Z,94.60
2019-04-14T01:55:20.180Z,94.30
2019-04-14T01:58:09.914Z,94.60
2019-04-14T02:00:40.580Z,94.90
2019-04-14T02:03:10.653Z,94.90
2019-04-14T02:05:40.710Z,94.90
2019-04-14T02:08:09.740Z,95.10
2019-04-14T02:10:39.205Z,95.30
2019-04-14T02:13:09.321Z,95.50
2019-04-14T02:15:39.560Z,94.90
2019-04-14T02:18:09.809Z,94.40
2019-04-14T02:20:40.268Z,94.10
2019-04-14T02:23:10.358Z,94.30
2019-04-14T02:25:40.432Z,94.80
2019-04-14T02:28:09.654Z,94.50
2019-04-14T02:30:47.074Z,95.10
2019-04-14T02:33:41.296Z,95.10
2019-04-14T02:36:14.037Z,95.10
2019-04-14T02:38:40.914Z,94.90
2019-04-14T02:41:13.992Z,95.00
2019-04-14T02:46:03.952Z,94.60
2019-04-14T02:48:47.191Z,95.30
2019-04-14T02:51:12.487Z,94.90
2019-04-14T02:53:44.326Z,94.70
2019-04-14T02:56:16.028Z,94.50
2019-04-14T03:01:18.734Z,94.50
2019-04-14T03:03:43.450Z,94.90
2019-04-14T03:06:14.416Z,95.00
2019-04-14T03:13:45.887Z,94.40
2019-04-14T03:21:54.762Z,94.90
2019-04-14T03:24:25.752Z,94.90
2019-04-14T03:26:49.391Z,95.30
2019-04-14T03:29:34.814Z,94.90
2019-04-14T03:32:11.080Z,94.80
2019-04-14T03:39:33.435Z,94.40
2019-04-14T03:42:00.577Z,94.30
2019-04-14T03:44:37.612Z,94.50
2019-04-14T03:46:55.487Z,94.60
2019-04-14T03:49:31.766Z,94.20
2019-04-14T03:51:59.655Z,94.30
2019-04-14T03:54:30.063Z,95.10
2019-04-14T03:56:53.650Z,95.00
2019-04-14T03:59:23.963Z,94.90
2019-04-14T04:01:54.435Z,94.60
2019-04-14T04:04:24.846Z,94.90
2019-04-14T04:06:55.320Z,94.90
2019-04-14T04:09:26.358Z,94.50
2019-04-14T04:11:56.227Z,95.20
2019-04-14T04:14:25.311Z,94.70
2019-04-14T04:17:03.571Z,94.70
2019-04-14T04:19:34.185Z,94.90
2019-04-14T04:22:17.173Z,94.90
2019-04-14T04:24:56.982Z,94.70
2019-04-14T04:27:33.463Z,94.60
2019-04-14T04:30:04.083Z,95.10
2019-04-14T04:32:49.383Z,95.60
2019-04-14T04:35:39.229Z,95.50
2019-04-14T04:38:18.719Z,95.20
2019-04-14T04:40:48.554Z,95.50
2019-04-14T04:43:17.569Z,96.60
2019-04-14T04:45:47.385Z,96.20
2019-04-14T04:48:17.513Z,95.80
2019-04-14T04:50:47.640Z,96.00
2019-04-14T04:53:33.707Z,96.30
2019-04-14T04:56:03.628Z,96.70
2019-04-14T04:58:32.832Z,95.90
2019-04-14T05:01:03.416Z,96.10
2019-04-14T05:03:32.378Z,95.90
2019-04-14T05:06:09.485Z,96.30
2019-04-14T05:08:41.214Z,95.90
2019-04-14T05:11:14.924Z,96.00
2019-04-14T05:13:46.715Z,96.10
2019-04-14T05:16:16.798Z,96.20
2019-04-14T05:18:46.334Z,96.30
2019-04-14T05:21:15.589Z,96.20
2019-04-14T05:23:45.325Z,96.30
2019-04-14T05:26:15.496Z,96.80
2019-04-14T05:28:44.501Z,96.50
2019-04-14T05:31:14.329Z,97.10
2019-04-14T05:33:43.324Z,97.20
2019-04-14T05:36:12.834Z,97.60
2019-04-14T05:38:42.844Z,96.80
2019-04-14T05:41:11.978Z,97.50
2019-04-14T05:43:48.738Z,97.80
2019-04-14T05:46:12.076Z,97.50
2019-04-14T05:48:41.051Z,97.80
2019-04-14T05:51:10.981Z,97.80
2019-04-14T05:56:07.865Z,98.40
2019-04-14T05:58:38.170Z,98.60
2019-04-14T06:01:08.922Z,98.40
2019-04-14T06:03:38.657Z,98.30
2019-04-14T06:06:07.637Z,98.00
2019-04-14T06:08:36.454Z,97.90
2019-04-14T06:11:05.546Z,98.00
2019-04-14T06:13:34.362Z,98.10
2019-04-14T06:16:03.466Z,97.90
2019-04-14T06:18:32.280Z,98.00
2019-04-14T06:21:01.346Z,98.50
2019-04-14T06:23:30.314Z,98.30
2019-04-14T06:25:59.430Z,98.40
2019-04-14T06:28:28.313Z,98.30
2019-04-14T06:31:11.208Z,98.50
2019-04-14T06:33:44.536Z,98.20
2019-04-14T06:36:24.253Z,97.90
2019-04-14T06:38:54.789Z,97.90
2019-04-14T06:41:23.847Z,97.30
2019-04-14T06:43:52.758Z,97.60
2019-04-14T06:46:22.028Z,97.90
2019-04-14T06:48:50.823Z,97.90
2019-04-14T06:51:19.607Z,97.30
2019-04-14T06:53:48.600Z,97.70
2019-04-14T06:56:32.847Z,97.80
2019-04-14T06:59:01.804Z,97.80
2019-04-14T07:01:30.963Z,98.80
2019-04-14T07:03:59.861Z,98.00
2019-04-14T07:06:28.798Z,98.00
2019-04-14T07:08:57.650Z,97.50
2019-04-14T07:11:26.793Z,98.00
2019-04-14T07:13:55.625Z,97.80
2019-04-14T07:16:24.482Z,98.30
2019-04-14T07:18:53.401Z,98.10
2019-04-14T07:21:22.604Z,97.80
2019-04-14T07:23:57.001Z,98.30
2019-04-14T07:26:26.206Z,98.50
2019-04-14T07:28:56.887Z,99.10
2019-04-14T07:31:30.882Z,98.50
2019-04-14T07:34:01.564Z,98.30
2019-04-14T07:36:47.296Z,97.60
2019-04-14T07:39:17.845Z,97.50
2019-04-14T07:42:04.868Z,96.80
2019-04-14T07:44:44.148Z,96.80
2019-04-14T07:47:20.392Z,96.50
2019-04-14T07:49:51.111Z,97.10
2019-04-14T07:52:30.568Z,97.30
2019-04-14T07:55:06.956Z,97.40
2019-04-14T07:58:08.672Z,97.40
2019-04-14T08:00:39.349Z,97.40
2019-04-14T08:03:12.669Z,97.80
2019-04-14T08:05:42.819Z,97.30
2019-04-14T08:08:11.652Z,97.40
2019-04-14T08:10:40.705Z,97.50
2019-04-14T08:13:09.671Z,97.40
2019-04-14T08:15:38.658Z,97.30
2019-04-14T08:18:07.613Z,97.20
2019-04-14T08:20:36.472Z,96.80
2019-04-14T08:23:05.448Z,97.60
2019-04-14T08:25:34.394Z,97.70
2019-04-14T08:28:03.330Z,97.20
2019-04-14T08:30:32.187Z,97.40
2019-04-14T08:33:01.075Z,96.80
2019-04-14T08:35:30.185Z,96.90
2019-04-14T08:37:59.149Z,96.50
2019-04-14T08:40:28.137Z,97.10
2019-04-14T08:43:07.886Z,97.40
2019-04-14T08:45:38.558Z,97.60
2019-04-14T08:48:18.046Z,98.00
2019-04-14T08:50:48.664Z,97.20
2019-04-14T08:53:25.009Z,96.80
2019-04-14T08:58:44.025Z,97.50
2019-04-14T09:01:20.773Z,97.80
2019-04-14T09:03:51.228Z,97.10
2019-04-14T09:06:21.975Z,97.40
2019-04-14T09:09:01.300Z,97.70
2019-04-14T09:11:31.924Z,97.50
2019-04-14T09:14:00.831Z,97.10
2019-04-14T09:16:29.973Z,97.40
2019-04-14T09:19:07.627Z,97.60
2019-04-14T09:21:29.923Z,97.90
2019-04-14T09:23:58.863Z,97.20
2019-04-14T09:26:27.871Z,96.80
2019-04-14T09:28:56.754Z,97.50
2019-04-14T09:31:25.612Z,96.80
2019-04-14T09:33:54.530Z,96.00
2019-04-14T09:36:23.659Z,95.70
2019-04-14T09:38:52.827Z,96.40
2019-04-14T09:41:21.747Z,96.40
2019-04-14T09:43:51.005Z,95.40
2019-04-14T09:46:20.068Z,96.10
2019-04-14T09:48:49.478Z,95.60
2019-04-14T09:51:18.485Z,95.70
2019-04-14T09:53:47.603Z,96.70
2019-04-14T09:56:16.489Z,96.20
2019-04-14T09:59:02.816Z,96.40
2019-04-14T10:01:31.861Z,95.70
2019-04-14T10:04:00.866Z,95.90
2019-04-14T10:06:30.051Z,96.60
2019-04-14T10:08:59.131Z,96.00
2019-04-14T10:11:28.054Z,94.00
2019-04-14T10:13:57.204Z,95.20
2019-04-14T10:16:26.152Z,94.80
2019-04-14T10:18:55.178Z,94.30
2019-04-14T10:21:24.423Z,94.20
2019-04-14T10:23:53.340Z,94.40
2019-04-14T10:26:22.578Z,94.70
2019-04-14T10:28:51.667Z,95.50
2019-04-14T10:31:20.663Z,95.40
2019-04-14T10:33:49.720Z,95.40
2019-04-14T10:36:21.671Z,95.80
2019-04-14T10:38:50.974Z,96.10
2019-04-14T10:41:20.030Z,96.10
2019-04-14T10:43:49.030Z,96.60
2019-04-14T10:46:18.129Z,96.10
2019-04-14T10:48:47.136Z,94.90
2019-04-14T10:51:16.148Z,96.00
2019-04-14T10:53:45.270Z,95.80
2019-04-14T10:56:14.314Z,95.70
2019-04-14T10:59:00.629Z,95.70
2019-04-14T11:01:29.762Z,95.90
2019-04-14T11:03:58.797Z,95.90
2019-04-14T11:06:32.772Z,95.90
2019-04-14T11:09:01.839Z,95.50
2019-04-14T11:11:31.046Z,95.40
2019-04-14T11:14:00.144Z,94.90
2019-04-14T11:16:29.207Z,94.60
2019-04-14T11:18:58.326Z,95.40
2019-04-14T11:21:27.401Z,95.70
2019-04-14T11:23:56.318Z,95.80
2019-04-14T11:26:25.476Z,95.90
2019-04-14T11:28:54.750Z,95.00
2019-04-14T11:31:31.258Z,95.30
2019-04-14T11:34:01.648Z,95.20
2019-04-14T11:36:35.285Z,95.40
2019-04-14T11:39:07.614Z,95.30
2019-04-14T11:41:36.773Z,95.40
2019-04-14T11:44:06.315Z,95.30
2019-04-14T11:46:36.876Z,95.70
2019-04-14T11:49:06.214Z,96.10
2019-04-14T11:51:35.886Z,96.00
2019-04-14T11:54:05.080Z,95.40
2019-04-14T11:56:34.430Z,95.20
2019-04-14T11:59:22.482Z,95.40
2019-04-14T12:02:02.403Z,95.60
2019-04-14T12:04:38.854Z,95.00
2019-04-14T12:07:12.654Z,95.70
2019-04-14T12:09:43.317Z,95.50
2019-04-14T12:12:15.260Z,95.10
2019-04-14T12:14:44.337Z,95.40
2019-04-14T12:17:13.629Z,95.20
2019-04-14T12:19:42.606Z,95.50
2019-04-14T12:22:11.800Z,94.90
2019-04-14T12:24:41.487Z,95.40
2019-04-14T12:27:10.615Z,96.00
2019-04-14T12:29:39.604Z,95.60
2019-04-14T12:32:08.899Z,95.50
2019-04-14T12:34:38.228Z,95.60
2019-04-14T12:37:07.766Z,96.10
2019-04-14T12:39:36.958Z,95.10
2019-04-14T12:42:19.638Z,95.60
2019-04-14T12:44:53.183Z,95.90
2019-04-14T12:47:40.329Z,95.80
2019-04-14T12:50:26.616Z,95.20
2019-04-14T12:52:56.261Z,95.30
2019-04-14T12:55:26.556Z,95.80
2019-04-14T12:57:57.218Z,96.30
2019-04-14T13:00:47.238Z,96.10
2019-04-14T13:03:16.387Z,96.00
2019-04-14T13:05:45.257Z,96.20
2019-04-14T13:08:14.375Z,96.40
2019-04-14T13:10:43.264Z,96.00
2019-04-14T13:13:12.415Z,96.40
2019-04-14T13:15:41.694Z,95.90
2019-04-14T13:18:10.915Z,96.30
2019-04-14T13:20:40.023Z,96.90
2019-04-14T13:23:10.709Z,97.00
2019-04-14T13:25:39.793Z,96.40
2019-04-14T13:28:08.690Z,96.80
2019-04-14T13:30:39.379Z,97.50
2019-04-14T13:33:33.406Z,97.60
2019-04-14T13:36:02.371Z,97.60
2019-04-14T13:38:31.260Z,98.20
2019-04-14T13:41:00.099Z,98.50
2019-04-14T13:46:51.310Z,97.20
2019-04-14T13:49:20.376Z,97.90
2019-04-14T13:51:49.173Z,98.40
2019-04-14T13:54:18.148Z,99.20
2019-04-14T13:56:46.958Z,99.30
2019-04-14T13:59:17.285Z,99.20
2019-04-14T14:01:46.476Z,99.30
2019-04-14T14:04:15.253Z,99.50
2019-04-14T14:06:44.414Z,99.10
2019-04-14T14:09:13.340Z,99.20
2019-04-14T14:11:46.949Z,99.10
2019-04-14T14:14:36.123Z,98.90
2019-04-14T14:17:06.669Z,98.50
2019-04-14T14:19:49.397Z,98.70
2019-04-14T14:22:19.925Z,98.90
2019-04-14T14:24:56.394Z,98.70
2019-04-14T14:27:25.415Z,98.80
2019-04-14T14:29:54.193Z,98.70
2019-04-14T14:32:27.273Z,98.80
2019-04-14T14:34:56.087Z,98.80
2019-04-14T14:37:26.361Z,98.90
2019-04-14T14:39:55.145Z,99.00
2019-04-14T14:42:23.938Z,98.70
2019-04-14T14:45:00.518Z,99.40
2019-04-14T14:47:31.067Z,99.60
2019-04-14T14:50:07.494Z,99.50
2019-04-14T14:52:37.698Z,99.60
2019-04-14T14:55:07.420Z,99.90
2019-04-14T14:57:36.314Z,99.70
2019-04-14T15:00:09.693Z,99.40
2019-04-14T15:02:38.526Z,99.50
2019-04-14T15:05:07.486Z,99.40
2019-04-14T15:07:36.443Z,99.60
2019-04-14T15:10:06.782Z,99.50
2019-04-14T15:12:35.776Z,99.70
2019-04-14T15:15:06.034Z,99.70
2019-04-14T15:17:34.943Z,99.90
2019-04-14T15:20:05.409Z,99.90
2019-04-14T15:22:34.530Z,99.90
2019-04-14T15:25:03.879Z,99.70
2019-04-14T15:27:34.754Z,99.90
2019-04-14T15:30:06.370Z,99.90
2019-04-14T15:32:35.374Z,99.80
2019-04-14T15:35:05.889Z,99.50
2019-04-14T15:37:35.886Z,99.60
2019-04-14T15:40:06.287Z,99.40
2019-04-14T15:42:35.226Z,99.40
2019-04-14T15:45:04.631Z,99.60
2019-04-14T15:47:33.639Z,99.70
2019-04-14T15:50:02.569Z,99.50
2019-04-14T15:52:31.579Z,99.50
2019-04-14T15:55:02.939Z,99.70
2019-04-14T15:57:39.433Z,99.80
2019-04-14T16:00:10.252Z,99.80
2019-04-14T16:02:40.902Z,99.80
2019-04-14T16:05:26.782Z,99.60
2019-04-14T16:07:57.466Z,99.60
2019-04-14T16:10:34.442Z,99.90
2019-04-14T16:13:13.598Z,99.70
2019-04-14T16:15:59.343Z,99.90
2019-04-14T16:18:45.193Z,99.70
2019-04-14T16:21:14.171Z,99.70
2019-04-14T16:23:50.328Z,99.40
2019-04-14T16:26:18.217Z,99.80
2019-04-14T16:28:51.140Z,99.80
2019-04-14T16:31:27.350Z,99.60
2019-04-14T16:34:04.125Z,99.70
2019-04-14T16:36:32.918Z,99.90
2019-04-14T16:39:01.812Z,99.40
2019-04-14T16:41:30.801Z,99.10
2019-04-14T16:44:00.013Z,99.00
2019-04-14T16:46:29.189Z,98.90
2019-04-14T16:48:58.075Z,99.20
2019-04-14T16:51:28.677Z,99.20
2019-04-14T16:54:03.208Z,99.40
2019-04-14T16:56:34.492Z,99.60
2019-04-14T16:59:05.066Z,99.30
2019-04-14T17:01:35.501Z,99.60
2019-04-14T17:04:15.997Z,99.50
2019-04-14T17:06:45.218Z,99.70
2019-04-14T17:09:14.139Z,99.60
2019-04-14T17:11:43.175Z,99.50
2019-04-14T17:14:13.695Z,99.70
2019-04-14T17:16:44.313Z,99.60
2019-04-14T17:19:14.837Z,99.70
2019-04-14T17:21:51.619Z,99.60
2019-04-14T17:24:37.178Z,99.60
2019-04-14T17:27:19.761Z,99.80
2019-04-14T17:29:54.636Z,99.90
2019-04-14T17:32:24.832Z,99.90
2019-04-14T17:34:55.343Z,99.80
2019-04-14T17:37:42.354Z,99.00
2019-04-14T17:40:28.365Z,99.00
2019-04-14T17:43:10.967Z,99.00
2019-04-14T17:45:43.958Z,99.10
2019-04-14T17:48:30.922Z,99.10
2019-04-14T17:51:07.864Z,98.90
2019-04-14T17:53:41.229Z,98.70
2019-04-14T17:56:11.908Z,98.70
2019-04-14T17:58:45.006Z,98.70
2019-04-14T18:01:21.593Z,98.50
2019-04-14T18:04:04.440Z,98.90
2019-04-14T18:06:34.948Z,98.90
2019-04-14T18:09:06.771Z,99.20
2019-04-14T18:11:37.418Z,99.20
2019-04-14T18:14:07.937Z,99.20
2019-04-14T18:16:41.078Z,99.40
2019-04-14T18:19:28.414Z,99.60
2019-04-14T18:21:57.245Z,99.20
2019-04-14T18:24:26.066Z,98.90
2019-04-14T18:26:55.152Z,98.50
2019-04-14T18:29:31.760Z,98.40
2019-04-14T18:32:05.326Z,98.20
2019-04-14T18:35:11.586Z,98.10
2019-04-14T18:37:48.253Z,98.70
2019-04-14T18:40:18.867Z,98.30
2019-04-14T18:42:58.474Z,98.00
2019-04-14T18:45:31.912Z,97.80
2019-04-14T18:48:14.458Z,97.90
2019-04-14T18:50:44.978Z,97.90
2019-04-14T18:53:18.581Z,98.10
2019-04-14T18:56:05.219Z,98.20
2019-04-14T18:58:38.945Z,98.20
2019-04-14T19:01:15.464Z,98.20
2019-04-14T19:03:45.113Z,98.50
2019-04-14T19:06:14.438Z,98.40
2019-04-14T19:08:44.965Z,98.20
2019-04-14T19:11:15.870Z,98.80
2019-04-14T19:13:49.330Z,98.60
2019-04-14T19:16:39.736Z,98.60
2019-04-14T19:19:07.338Z,99.20
2019-04-14T19:21:36.636Z,98.70
2019-04-14T19:24:05.935Z,99.00
2019-04-14T19:26:35.039Z,98.80
2019-04-14T19:29:04.344Z,98.70
2019-04-14T19:31:33.278Z,98.20
2019-04-14T19:34:02.284Z,98.00
2019-04-14T19:36:48.493Z,98.30
2019-04-14T19:39:17.491Z,98.20
2019-04-14T19:41:46.731Z,98.10
2019-04-14T19:44:15.778Z,98.10
2019-04-14T19:46:45.173Z,98.30
2019-04-14T19:49:14.151Z,98.10
2019-04-14T19:51:43.204Z,98.40
2019-04-14T19:54:12.205Z,98.30
2019-04-14T19:56:41.146Z,98.20
2019-04-14T19:59:13.097Z,98.70
2019-04-14T20:01:44.208Z,98.80
2019-04-14T20:04:13.565Z,99.00
2019-04-14T20:06:42.822Z,99.00
2019-04-14T20:09:11.872Z,98.70
2019-04-14T20:11:42.018Z,98.70
2019-04-14T20:14:11.229Z,98.70
2019-04-14T20:16:54.059Z,98.20
2019-04-14T20:19:27.712Z,98.20
2019-04-14T20:21:59.152Z,98.30
2019-04-14T20:24:46.644Z,97.80
2019-04-14T20:27:22.650Z,97.70
2019-04-14T20:29:53.540Z,97.70
2019-04-14T20:32:33.198Z,98.10
2019-04-14T20:35:02.470Z,98.00
2019-04-14T20:37:48.072Z,98.20
2019-04-14T20:40:17.153Z,98.20
2019-04-14T20:42:46.141Z,98.10
2019-04-14T20:45:15.063Z,98.30
2019-04-14T20:47:44.113Z,98.40
2019-04-14T20:50:13.991Z,98.30
2019-04-14T20:52:43.140Z,98.30
2019-04-14T20:55:12.501Z,98.20
2019-04-14T20:57:41.892Z,98.00
2019-04-14T21:00:10.848Z,98.70
2019-04-14T21:02:41.387Z,98.10
2019-04-14T21:05:28.375Z,98.10
2019-04-14T21:08:04.789Z,98.50
2019-04-14T21:10:44.872Z,98.30
2019-04-14T21:13:21.606Z,98.70
2019-04-14T21:16:12.931Z,98.80
2019-04-14T21:18:53.349Z,98.80
2019-04-14T21:21:23.812Z,98.80
2019-04-14T21:23:56.835Z,98.70
2019-04-14T21:26:33.185Z,98.40
2019-04-14T21:29:09.966Z,98.10
2019-04-14T21:31:40.452Z,98.40
2019-04-14T21:34:11.092Z,98.00
2019-04-14T21:36:57.950Z,98.60
2019-04-14T21:39:34.585Z,98.10
2019-04-14T21:42:06.992Z,97.90
2019-04-14T21:44:35.838Z,98.00
2019-04-14T21:47:05.126Z,98.10
2019-04-14T21:49:34.153Z,98.70
2019-04-14T21:52:07.773Z,98.80
2019-04-14T21:54:37.060Z,98.20
2019-04-14T21:57:13.662Z,98.40
2019-04-14T22:00:00.478Z,98.40
2019-04-14T22:02:47.506Z,98.30
2019-04-14T22:05:20.795Z,98.40
2019-04-14T22:08:07.565Z,98.60
2019-04-14T22:10:40.782Z,98.30
2019-04-14T22:13:10.008Z,98.30
2019-04-14T22:15:38.968Z,98.20
2019-04-14T22:18:07.902Z,98.20
2019-04-14T22:20:36.797Z,98.40
2019-04-14T22:23:07.346Z,98.00
2019-04-14T22:25:36.476Z,98.50
2019-04-14T22:28:05.518Z,98.50
2019-04-14T22:30:34.589Z,98.10
2019-04-14T22:33:04.058Z,97.90
2019-04-14T22:35:33.058Z,98.20
2019-04-14T22:38:02.245Z,98.40
2019-04-14T22:40:31.091Z,98.30
2019-04-14T22:43:00.175Z,98.60
2019-04-14T22:45:29.173Z,98.50
2019-04-14T22:47:58.464Z,98.70
2019-04-14T22:50:27.569Z,98.20
2019-04-14T22:52:56.560Z,98.40
2019-04-14T22:55:25.516Z,98.70
2019-04-14T22:57:54.444Z,98.40
2019-04-14T23:00:28.460Z,98.80
2019-04-14T23:02:58.980Z,98.80
2019-04-14T23:05:44.757Z,98.90
2019-04-14T23:08:15.393Z,99.40
2019-04-14T23:10:46.023Z,99.10
2019-04-14T23:13:22.683Z,99.20
2019-04-14T23:16:09.673Z,99.00
2019-04-14T23:18:40.566Z,99.10
2019-04-14T23:21:13.825Z,99.10
2019-04-14T23:23:44.747Z,99.00
2019-04-14T23:26:13.866Z,99.10
2019-04-14T23:28:42.726Z,98.90
2019-04-14T23:31:11.787Z,99.00
2019-04-14T23:33:40.720Z,98.80
2019-04-14T23:36:09.748Z,98.60
2019-04-14T23:38:38.662Z,98.70
2019-04-14T23:41:07.708Z,98.30
2019-04-14T23:43:36.672Z,98.30
2019-04-14T23:46:05.791Z,98.30
2019-04-14T23:48:34.664Z,98.90
2019-04-14T23:51:03.612Z,98.90
2019-04-14T23:53:35.524Z,99.10
2019-04-14T23:56:04.654Z,98.80
2019-04-14T23:58:34.148Z,98.70
